createdAt,value
2018-03-17T00:00:59.745Z,3.65
2018-03-17T00:03:25.931Z,10.43
2018-03-17T00:05:52.119Z,5.18
2018-03-17T00:08:18.341Z,3.25
2018-03-17T00:10:44.588Z,6.18
2018-03-17T00:13:10.799Z,7.43
2018-03-17T00:15:37.027Z,7.85
2018-03-17T00:18:03.272Z,2.40
2018-03-17T00:20:29.435Z,6.82
2018-03-17T00:22:56.375Z,6.80
2018-03-17T00:25:23.340Z,6.00
2018-03-17T00:27:49.513Z,11.10
2018-03-17T00:30:15.769Z,4.93
2018-03-17T00:32:42.008Z,4.65
2018-03-17T00:35:08.944Z,6.80
2018-03-17T00:37:35.212Z,8.43
2018-03-17T00:40:01.423Z,7.93
2018-03-17T00:42:28.413Z,8.05
2018-03-17T00:44:54.676Z,12.68
2018-03-17T00:47:20.872Z,9.68
2018-03-17T00:49:47.097Z,7.93
2018-03-17T00:52:13.300Z,9.52
2018-03-17T00:54:39.532Z,6.68
2018-03-17T00:57:05.808Z,3.55
2018-03-17T00:59:31.976Z,5.80
2018-03-17T01:01:58.196Z,3.65
2018-03-17T01:04:24.485Z,8.15
2018-03-17T01:06:50.690Z,6.57
2018-03-17T01:09:16.884Z,8.30
2018-03-17T01:11:43.104Z,6.93
2018-03-17T01:14:09.328Z,8.95
2018-03-17T01:16:36.305Z,4.90
2018-03-17T01:19:02.541Z,4.20
2018-03-17T01:21:28.752Z,8.00
2018-03-17T01:23:54.930Z,5.50
2018-03-17T01:26:21.093Z,8.20
2018-03-17T01:28:47.313Z,6.82
2018-03-17T01:31:14.249Z,7.82
2018-03-17T01:33:41.234Z,7.15
2018-03-17T01:36:07.450Z,7.50
2018-03-17T01:38:33.694Z,8.40
2018-03-17T01:41:00.021Z,7.50
2018-03-17T01:43:26.221Z,13.38
2018-03-17T01:45:52.452Z,8.27
2018-03-17T01:48:18.708Z,7.53
2018-03-17T01:50:44.929Z,16.85
2018-03-17T01:53:11.122Z,8.25
2018-03-17T01:55:37.365Z,9.57
2018-03-17T01:58:03.661Z,16.17
2018-03-17T02:00:29.878Z,7.10
2018-03-17T02:02:56.056Z,15.07
2018-03-17T02:05:22.277Z,8.40
2018-03-17T02:07:48.567Z,11.40
2018-03-17T02:10:14.888Z,9.52
2018-03-17T02:12:41.069Z,18.52
2018-03-17T02:15:07.369Z,8.82
2018-03-17T02:17:34.335Z,9.95
2018-03-17T02:20:00.554Z,14.20
2018-03-17T02:22:27.563Z,15.60
2018-03-17T02:24:53.777Z,11.40
2018-03-17T02:27:20.008Z,12.80
2018-03-17T02:29:46.252Z,15.55
2018-03-17T02:32:12.460Z,12.13
2018-03-17T02:34:38.669Z,15.52
2018-03-17T02:37:04.920Z,11.65
2018-03-17T02:39:31.120Z,11.57
2018-03-17T02:41:57.325Z,9.88
2018-03-17T02:44:24.330Z,24.35
2018-03-17T02:46:50.548Z,27.48
2018-03-17T02:49:16.793Z,21.55
2018-03-17T02:51:42.979Z,23.33
2018-03-17T02:54:09.181Z,31.55
2018-03-17T02:56:36.161Z,33.40
2018-03-17T02:59:02.450Z,23.98
2018-03-17T03:01:29.441Z,31.90
2018-03-17T03:03:55.645Z,30.50
2018-03-17T03:06:21.870Z,30.10
2018-03-17T03:08:48.084Z,27.45
2018-03-17T03:11:14.322Z,34.85
2018-03-17T03:13:40.535Z,26.60
2018-03-17T03:16:07.528Z,34.72
2018-03-17T03:18:33.748Z,37.83
2018-03-17T03:21:00.000Z,34.10
2018-03-17T03:23:26.240Z,29.20
2018-03-17T03:25:52.433Z,26.73
2018-03-17T03:28:18.690Z,32.35
2018-03-17T03:30:44.867Z,29.15
2018-03-17T03:33:11.086Z,34.40
2018-03-17T03:35:38.084Z,29.50
2018-03-17T03:38:04.278Z,40.10
2018-03-17T03:40:30.479Z,39.05
2018-03-17T03:42:57.464Z,34.83
2018-03-17T03:45:23.724Z,40.00
2018-03-17T03:47:49.938Z,41.15
2018-03-17T03:50:16.162Z,34.92
2018-03-17T03:52:42.370Z,40.42
2018-03-17T03:55:08.612Z,38.40
2018-03-17T03:57:34.819Z,40.70
2018-03-17T04:00:01.038Z,42.47
2018-03-17T04:02:27.252Z,37.45
2018-03-17T04:04:54.214Z,47.35
2018-03-17T04:07:20.439Z,37.25
2018-03-17T04:09:46.649Z,41.70
2018-03-17T04:12:13.630Z,39.92
2018-03-17T04:14:39.823Z,44.92
2018-03-17T04:17:06.756Z,37.58
2018-03-17T04:19:32.953Z,44.37
2018-03-17T04:21:59.197Z,46.67
2018-03-17T04:24:25.430Z,41.08
2018-03-17T04:26:51.662Z,31.70
2018-03-17T04:29:17.926Z,36.58
2018-03-17T04:31:44.100Z,35.40
2018-03-17T04:34:10.343Z,48.28
2018-03-17T04:36:36.518Z,32.78
2018-03-17T04:39:02.785Z,35.30
2018-03-17T04:41:28.944Z,29.95
2018-03-17T04:43:55.871Z,35.35
2018-03-17T04:46:22.851Z,39.20
2018-03-17T04:48:49.058Z,34.03
2018-03-17T04:51:15.242Z,36.50
2018-03-17T04:53:41.445Z,39.40
2018-03-17T04:56:07.817Z,42.03
2018-03-17T04:58:34.016Z,39.45
2018-03-17T05:01:00.229Z,42.03
2018-03-17T05:03:26.466Z,45.17
2018-03-17T05:05:52.702Z,49.33
2018-03-17T05:08:18.905Z,56.72
2018-03-17T05:10:45.132Z,63.10
2018-03-17T05:13:11.364Z,49.50
2018-03-17T05:15:37.633Z,54.50
2018-03-17T05:18:03.839Z,53.05
2018-03-17T05:20:30.051Z,58.13
2018-03-17T05:22:56.224Z,50.42
2018-03-17T05:25:22.418Z,57.85
2018-03-17T05:27:48.688Z,57.25
2018-03-17T05:30:14.892Z,53.60
2018-03-17T05:32:41.134Z,57.23
2018-03-17T05:35:07.353Z,52.38
2018-03-17T05:37:33.612Z,56.92
2018-03-17T05:39:59.795Z,61.35
2018-03-17T05:42:26.032Z,62.03
2018-03-17T05:44:52.265Z,58.22
2018-03-17T05:47:18.481Z,56.22
2018-03-17T05:49:44.708Z,65.57
2018-03-17T05:52:10.878Z,57.38
2018-03-17T05:54:37.077Z,57.83
2018-03-17T05:57:03.307Z,60.28
2018-03-17T05:59:29.504Z,54.60
2018-03-17T06:01:55.737Z,59.92
2018-03-17T06:04:22.667Z,58.03
2018-03-17T06:06:48.910Z,56.90
2018-03-17T06:09:15.117Z,66.10
2018-03-17T06:11:41.308Z,63.17
2018-03-17T06:14:07.581Z,58.33
2018-03-17T06:16:34.509Z,58.70
2018-03-17T06:19:01.454Z,79.50
2018-03-17T06:21:27.662Z,59.47
2018-03-17T06:23:54.665Z,65.68
2018-03-17T06:26:20.880Z,48.67
2018-03-17T06:28:47.162Z,49.05
2018-03-17T06:31:13.456Z,46.95
2018-03-17T06:33:39.681Z,44.83
2018-03-17T06:36:05.916Z,46.65
2018-03-17T06:38:32.155Z,51.35
2018-03-17T06:40:58.389Z,43.90
2018-03-17T06:43:24.596Z,50.25
2018-03-17T06:45:50.811Z,48.75
2018-03-17T06:48:17.051Z,47.55
2018-03-17T06:50:43.308Z,51.42
2018-03-17T06:53:09.575Z,46.13
2018-03-17T06:55:35.757Z,44.95
2018-03-17T06:58:01.976Z,41.40
2018-03-17T07:00:28.179Z,42.95
2018-03-17T07:02:54.437Z,42.70
2018-03-17T07:05:20.635Z,41.55
2018-03-17T07:07:46.848Z,47.28
2018-03-17T07:10:13.123Z,44.78
2018-03-17T07:12:39.353Z,47.97
2018-03-17T07:15:05.652Z,48.25
2018-03-17T07:17:31.846Z,46.30
2018-03-17T07:19:58.821Z,44.63
2018-03-17T07:22:25.075Z,44.72
2018-03-17T07:24:51.307Z,45.30
2018-03-17T07:27:17.487Z,47.53
2018-03-17T07:29:43.725Z,46.97
2018-03-17T07:32:09.931Z,47.50
2018-03-17T07:34:36.955Z,49.78
2018-03-17T07:37:03.238Z,47.85
2018-03-17T07:39:29.473Z,48.60
2018-03-17T07:41:55.681Z,51.83
2018-03-17T07:44:21.930Z,55.40
2018-03-17T07:46:48.181Z,53.87
2018-03-17T07:49:14.461Z,57.92
2018-03-17T07:51:40.706Z,52.78
2018-03-17T07:54:06.926Z,53.15
2018-03-17T07:56:33.204Z,51.90
2018-03-17T07:58:59.417Z,52.47
2018-03-17T08:01:25.640Z,49.97
2018-03-17T08:03:51.893Z,53.08
2018-03-17T08:06:18.221Z,52.20
2018-03-17T08:08:44.454Z,46.70
2018-03-17T08:11:10.784Z,53.42
2018-03-17T08:13:37.027Z,50.80
2018-03-17T08:16:04.010Z,51.55
2018-03-17T08:18:30.293Z,52.42
2018-03-17T08:20:56.502Z,52.85
2018-03-17T08:23:22.691Z,49.10
2018-03-17T08:25:48.913Z,49.00
2018-03-17T08:28:15.149Z,51.20
2018-03-17T08:30:41.416Z,48.00
2018-03-17T08:33:07.605Z,49.10
2018-03-17T08:35:33.799Z,49.88
2018-03-17T08:38:00.772Z,48.75
2018-03-17T08:40:26.997Z,49.28
2018-03-17T08:42:53.191Z,51.67
2018-03-17T08:45:19.428Z,47.33
2018-03-17T08:47:46.438Z,46.65
2018-03-17T08:50:12.666Z,47.78
2018-03-17T08:52:38.902Z,51.70
2018-03-17T08:55:05.163Z,56.10
2018-03-17T08:57:31.394Z,50.20
2018-03-17T08:59:58.342Z,54.95
2018-03-17T09:02:24.585Z,47.15
2018-03-17T09:04:50.802Z,52.13
2018-03-17T09:07:17.072Z,54.10
2018-03-17T09:09:43.510Z,52.78
2018-03-17T09:12:09.741Z,48.92
2018-03-17T09:14:35.998Z,48.60
2018-03-17T09:17:03.038Z,53.20
2018-03-17T09:19:29.337Z,48.55
2018-03-17T09:21:55.570Z,51.65
2018-03-17T09:24:21.924Z,49.33
2018-03-17T09:26:48.082Z,48.60
2018-03-17T09:29:14.284Z,52.60
2018-03-17T09:31:40.507Z,49.80
2018-03-17T09:34:06.745Z,55.22
2018-03-17T09:36:34.758Z,57.70
2018-03-17T09:39:00.984Z,53.87
2018-03-17T09:41:27.266Z,51.50
2018-03-17T09:43:53.464Z,49.88
2018-03-17T09:46:19.701Z,56.30
2018-03-17T09:48:45.964Z,57.75
2018-03-17T09:51:12.909Z,48.70
2018-03-17T09:53:39.893Z,49.67
2018-03-17T09:56:06.183Z,55.12
2018-03-17T09:58:32.400Z,55.72
2018-03-17T10:00:59.388Z,50.50
2018-03-17T10:03:25.632Z,49.03
2018-03-17T10:05:51.849Z,48.50
2018-03-17T10:08:18.121Z,53.00
2018-03-17T10:10:44.374Z,49.97
2018-03-17T10:13:11.292Z,47.85
2018-03-17T10:15:37.653Z,55.00
2018-03-17T10:18:03.882Z,47.03
2018-03-17T10:20:30.872Z,49.55
2018-03-17T10:22:57.089Z,55.70
2018-03-17T10:25:23.340Z,48.35
2018-03-17T10:27:49.574Z,59.78
2018-03-17T10:30:15.831Z,58.53
2018-03-17T10:32:42.079Z,50.53
2018-03-17T10:35:08.324Z,49.97
2018-03-17T10:37:34.556Z,51.60
2018-03-17T10:40:00.758Z,53.60
2018-03-17T10:42:27.013Z,48.45
2018-03-17T10:44:53.272Z,44.45
2018-03-17T10:47:19.526Z,45.40
2018-03-17T10:49:46.472Z,52.75
2018-03-17T10:52:12.728Z,47.97
2018-03-17T10:54:38.977Z,51.03
2018-03-17T10:57:13.289Z,42.55
2018-03-17T10:59:39.638Z,49.30
2018-03-17T11:02:05.916Z,48.85
2018-03-17T11:04:32.151Z,50.30
2018-03-17T11:06:58.414Z,51.93
2018-03-17T11:09:25.509Z,51.78
2018-03-17T11:11:52.464Z,58.50
2018-03-17T11:14:19.483Z,48.53
2018-03-17T11:16:46.533Z,51.63
2018-03-17T11:19:12.748Z,47.55
2018-03-17T11:21:39.172Z,49.25
2018-03-17T11:24:05.434Z,47.97
2018-03-17T11:26:32.355Z,44.47
2018-03-17T11:28:58.587Z,47.22
2018-03-17T11:31:24.838Z,43.70
2018-03-17T11:34:15.441Z,44.00
2018-03-17T11:36:43.508Z,44.17
2018-03-17T11:39:10.439Z,44.10
2018-03-17T11:41:44.504Z,46.63
2018-03-17T11:44:10.688Z,46.58
2018-03-17T11:46:36.909Z,50.08
2018-03-17T11:49:03.085Z,51.72
2018-03-17T11:51:29.284Z,50.83
2018-03-17T11:53:56.255Z,48.15
2018-03-17T11:56:22.441Z,45.67
2018-03-17T11:58:49.427Z,45.03
2018-03-17T12:01:15.704Z,43.20
2018-03-17T12:03:41.932Z,46.83
2018-03-17T12:06:08.200Z,53.92
2018-03-17T12:08:34.396Z,65.57
2018-03-17T12:11:00.600Z,49.15
2018-03-17T12:13:26.862Z,48.13
2018-03-17T12:15:53.434Z,47.08
2018-03-17T12:18:19.600Z,47.38
2018-03-17T12:20:45.843Z,46.78
2018-03-17T12:23:12.041Z,48.00
2018-03-17T12:25:38.296Z,43.15
2018-03-17T12:28:04.569Z,49.70
2018-03-17T12:30:30.798Z,46.17
2018-03-17T12:32:57.950Z,46.60
2018-03-17T12:35:24.185Z,47.47
2018-03-17T12:37:50.348Z,46.37
2018-03-17T12:40:16.628Z,44.13
2018-03-17T12:42:42.849Z,47.35
2018-03-17T12:45:09.772Z,49.25
2018-03-17T12:47:36.043Z,48.03
2018-03-17T12:50:02.277Z,44.25
2018-03-17T12:52:28.532Z,43.75
2018-03-17T12:54:54.741Z,45.12
2018-03-17T12:57:20.953Z,45.53
2018-03-17T12:59:47.150Z,37.75
2018-03-17T13:02:14.108Z,46.50
2018-03-17T13:04:40.321Z,40.20
2018-03-17T13:07:07.293Z,43.05
2018-03-17T13:09:33.532Z,50.42
2018-03-17T13:12:01.883Z,45.03
2018-03-17T13:14:28.089Z,46.28
2018-03-17T13:16:54.313Z,43.15
2018-03-17T13:19:29.687Z,40.45
2018-03-17T13:21:57.958Z,43.65
2018-03-17T13:24:24.161Z,42.42
2018-03-17T13:27:02.713Z,40.83
2018-03-17T13:29:28.888Z,43.13
2018-03-17T13:31:55.125Z,39.05
2018-03-17T13:34:21.314Z,44.60
2018-03-17T13:36:59.704Z,41.58
2018-03-17T13:39:25.888Z,40.65
2018-03-17T13:41:52.129Z,36.00
2018-03-17T13:44:19.161Z,41.08
2018-03-17T13:46:45.383Z,40.85
2018-03-17T13:49:11.633Z,51.35
2018-03-17T13:51:37.873Z,39.95
2018-03-17T13:54:04.117Z,37.65
2018-03-17T13:56:30.339Z,37.88
2018-03-17T13:58:57.310Z,36.80
2018-03-17T14:01:25.631Z,37.70
2018-03-17T14:03:51.907Z,35.95
2018-03-17T14:06:18.150Z,36.53
2018-03-17T14:08:44.404Z,39.58
2018-03-17T14:11:10.647Z,41.65
2018-03-17T14:13:36.888Z,35.95
2018-03-17T14:16:03.828Z,36.40
2018-03-17T14:18:30.061Z,35.15
2018-03-17T14:20:56.253Z,38.38
2018-03-17T14:23:22.482Z,33.97
2018-03-17T14:25:48.837Z,33.95
2018-03-17T14:28:15.065Z,33.72
2018-03-17T14:30:41.312Z,36.50
2018-03-17T14:33:08.265Z,34.45
2018-03-17T14:35:34.495Z,31.15
2018-03-17T14:38:01.436Z,31.05
2018-03-17T14:40:28.366Z,31.35
2018-03-17T14:42:54.573Z,32.13
2018-03-17T14:45:20.834Z,34.17
2018-03-17T14:47:47.772Z,35.05
2018-03-17T14:50:15.055Z,30.45
2018-03-17T14:52:41.302Z,40.45
2018-03-17T14:55:07.538Z,33.70
2018-03-17T14:57:33.760Z,32.58
2018-03-17T14:59:59.954Z,32.88
2018-03-17T15:02:26.135Z,38.45
2018-03-17T15:04:52.343Z,34.70
2018-03-17T15:07:18.548Z,29.98
2018-03-17T15:09:44.734Z,37.13
2018-03-17T15:12:10.956Z,35.97
2018-03-17T15:14:37.137Z,32.97
2018-03-17T15:17:03.376Z,37.97
2018-03-17T15:19:29.561Z,34.60
2018-03-17T15:21:56.547Z,33.92
2018-03-17T15:24:22.748Z,36.63
2018-03-17T15:26:49.019Z,35.45
2018-03-17T15:29:15.251Z,30.17
2018-03-17T15:31:41.483Z,39.15
2018-03-17T15:34:07.672Z,35.83
2018-03-17T15:36:33.863Z,37.33
2018-03-17T15:39:00.069Z,34.55
2018-03-17T15:41:26.287Z,35.92
2018-03-17T15:43:52.501Z,35.67
2018-03-17T15:46:18.735Z,34.38
2018-03-17T15:48:44.938Z,34.67
2018-03-17T15:51:11.122Z,33.92
2018-03-17T15:53:37.320Z,40.30
2018-03-17T15:56:03.548Z,36.03
2018-03-17T15:58:29.757Z,33.25
2018-03-17T16:00:55.984Z,36.13
2018-03-17T16:03:22.217Z,39.58
2018-03-17T16:05:48.456Z,34.20
2018-03-17T16:08:14.662Z,38.63
2018-03-17T16:10:40.916Z,42.62
2018-03-17T16:13:07.122Z,34.80
2018-03-17T16:15:33.329Z,41.33
2018-03-17T16:18:00.306Z,37.65
2018-03-17T16:20:26.516Z,38.08
2018-03-17T16:22:52.712Z,38.80
2018-03-17T16:25:19.678Z,39.75
2018-03-17T16:27:45.932Z,37.53
2018-03-17T16:30:12.182Z,40.22
2018-03-17T16:32:38.386Z,39.30
2018-03-17T16:35:04.596Z,38.38
2018-03-17T16:37:30.822Z,39.10
2018-03-17T16:39:57.057Z,41.70
2018-03-17T16:42:23.312Z,36.08
2018-03-17T16:44:49.552Z,42.95
2018-03-17T16:47:16.178Z,39.58
2018-03-17T16:49:42.409Z,35.95
2018-03-17T16:52:08.685Z,39.78
2018-03-17T16:54:34.960Z,43.90
2018-03-17T16:57:01.158Z,35.13
2018-03-17T16:59:27.389Z,37.80
2018-03-17T17:01:53.622Z,39.70
2018-03-17T17:04:19.826Z,36.42
2018-03-17T17:06:46.744Z,35.25
2018-03-17T17:09:12.949Z,41.08
2018-03-17T17:11:39.176Z,44.17
2018-03-17T17:14:05.402Z,39.35
2018-03-17T17:16:31.572Z,42.13
2018-03-17T17:18:58.550Z,37.08
2018-03-17T17:21:24.768Z,40.80
2018-03-17T17:23:50.920Z,39.45
2018-03-17T17:26:17.142Z,40.75
2018-03-17T17:28:43.402Z,39.53
2018-03-17T17:31:09.646Z,42.75
2018-03-17T17:33:35.852Z,37.60
2018-03-17T17:36:02.061Z,40.10
2018-03-17T17:38:28.284Z,44.50
2018-03-17T17:40:54.484Z,38.47
2018-03-17T17:43:21.399Z,38.25
2018-03-17T17:45:47.660Z,37.58
2018-03-17T17:48:14.584Z,43.22
2018-03-17T17:50:41.537Z,36.15
2018-03-17T17:53:07.786Z,37.53
2018-03-17T17:55:34.000Z,43.20
2018-03-17T17:58:00.942Z,43.03
2018-03-17T18:00:27.884Z,42.97
2018-03-17T18:02:54.842Z,46.78
2018-03-17T18:05:21.094Z,45.15
2018-03-17T18:07:47.315Z,45.30
2018-03-17T18:10:13.494Z,42.30
2018-03-17T18:12:39.701Z,43.17
2018-03-17T18:15:05.901Z,40.90
2018-03-17T18:17:32.053Z,41.03
2018-03-17T18:19:58.212Z,38.72
2018-03-17T18:22:24.419Z,40.20
2018-03-17T18:24:50.617Z,41.83
2018-03-17T18:27:16.865Z,45.65
2018-03-17T18:29:43.040Z,39.60
2018-03-17T18:32:10.004Z,44.60
2018-03-17T18:34:36.246Z,39.60
2018-03-17T18:37:02.444Z,42.08
2018-03-17T18:39:28.674Z,45.47
2018-03-17T18:41:54.872Z,43.53
2018-03-17T18:44:21.075Z,40.75
2018-03-17T18:46:47.292Z,38.55
2018-03-17T18:49:13.468Z,37.92
2018-03-17T18:51:39.716Z,43.80
2018-03-17T18:54:05.894Z,40.00
2018-03-17T18:56:32.147Z,44.70
2018-03-17T18:58:59.061Z,48.38
2018-03-17T19:01:25.257Z,37.75
2018-03-17T19:03:51.559Z,40.33
2018-03-17T19:06:18.509Z,42.05
2018-03-17T19:08:45.439Z,41.22
2018-03-17T19:11:12.372Z,42.58
2018-03-17T19:13:38.590Z,41.53
2018-03-17T19:16:04.859Z,43.65
2018-03-17T19:18:31.077Z,46.95
2018-03-17T19:20:58.048Z,43.00
2018-03-17T19:23:24.281Z,40.92
2018-03-17T19:25:50.541Z,38.25
2018-03-17T19:28:16.720Z,41.85
2018-03-17T19:30:42.913Z,44.58
2018-03-17T19:33:09.122Z,38.67
2018-03-17T19:35:35.374Z,36.75
2018-03-17T19:38:01.588Z,43.72
2018-03-17T19:40:27.821Z,37.88
2018-03-17T19:42:54.033Z,36.67
2018-03-17T19:45:20.265Z,37.88
2018-03-17T19:47:46.477Z,47.42
2018-03-17T19:50:12.678Z,38.42
2018-03-17T19:52:38.917Z,37.72
2018-03-17T19:55:05.171Z,38.17
2018-03-17T19:57:31.381Z,38.42
2018-03-17T19:59:57.628Z,42.92
2018-03-17T20:02:23.863Z,37.72
2018-03-17T20:04:50.080Z,38.85
2018-03-17T20:07:16.410Z,41.58
2018-03-17T20:09:42.643Z,39.95
2018-03-17T20:12:08.868Z,44.03
2018-03-17T20:14:35.174Z,51.45
2018-03-17T20:17:01.408Z,46.20
2018-03-17T20:19:27.654Z,44.45
2018-03-17T20:21:53.852Z,48.83
2018-03-17T20:24:21.154Z,39.35
2018-03-17T20:26:47.380Z,40.12
2018-03-17T20:29:13.615Z,41.33
2018-03-17T20:31:39.870Z,37.55
2018-03-17T20:34:06.853Z,38.70
2018-03-17T20:36:33.056Z,42.08
2018-03-17T20:38:59.273Z,39.28
2018-03-17T20:41:25.509Z,38.92
2018-03-17T20:43:51.820Z,41.17
2018-03-17T20:46:18.810Z,41.10
2018-03-17T20:48:45.020Z,38.92
2018-03-17T20:51:11.291Z,33.35
2018-03-17T20:53:37.517Z,38.80
2018-03-17T20:56:03.766Z,38.85
2018-03-17T20:58:30.995Z,34.55
2018-03-17T21:00:57.213Z,41.72
2018-03-17T21:03:23.411Z,40.95
2018-03-17T21:05:49.592Z,35.88
2018-03-17T21:08:15.869Z,35.72
2018-03-17T21:10:42.179Z,41.33
2018-03-17T21:13:08.417Z,36.72
2018-03-17T21:15:34.604Z,42.72
2018-03-17T21:18:00.815Z,39.22
2018-03-17T21:20:27.077Z,41.88
2018-03-17T21:22:54.018Z,42.05
2018-03-17T21:25:20.984Z,38.17
2018-03-17T21:27:47.255Z,43.45
2018-03-17T21:30:13.450Z,36.08
2018-03-17T21:32:39.692Z,42.92
2018-03-17T21:35:05.935Z,43.85
2018-03-17T21:37:32.125Z,38.85
2018-03-17T21:39:59.377Z,38.30
2018-03-17T21:42:27.042Z,43.72
2018-03-17T21:44:54.087Z,39.33
2018-03-17T21:47:20.339Z,43.28
2018-03-17T21:49:46.572Z,44.63
2018-03-17T21:52:12.816Z,43.47
2018-03-17T21:54:39.017Z,46.50
2018-03-17T21:57:05.270Z,40.80
2018-03-17T21:59:31.482Z,41.55
2018-03-17T22:01:57.733Z,48.58
2018-03-17T22:04:23.972Z,45.17
2018-03-17T22:09:48.943Z,41.90
2018-03-17T22:12:15.424Z,44.30
2018-03-17T22:14:41.652Z,50.55
2018-03-17T22:17:07.844Z,42.67
2018-03-17T22:19:34.085Z,45.12
2018-03-17T22:22:01.080Z,51.97
2018-03-17T22:24:27.261Z,51.03
2018-03-17T22:26:54.489Z,49.05
2018-03-17T22:29:20.671Z,50.58
2018-03-17T22:31:50.371Z,53.58
2018-03-17T22:34:17.313Z,55.08
2018-03-17T22:36:43.550Z,52.95
2018-03-17T22:39:09.753Z,48.75
2018-03-17T22:41:36.706Z,52.28
2018-03-17T22:44:02.986Z,45.88
2018-03-17T22:46:29.213Z,47.47
2018-03-17T23:28:45.037Z,53.63
2018-03-17T23:31:11.275Z,49.60
2018-03-17T23:33:37.480Z,53.38
2018-03-17T23:36:03.775Z,49.15
2018-03-17T23:38:29.990Z,50.08
2018-03-17T23:40:56.208Z,49.25
2018-03-17T23:43:22.454Z,52.25
2018-03-17T23:45:48.676Z,54.38
2018-03-17T23:48:14.927Z,50.47
2018-03-17T23:50:41.901Z,52.50
2018-03-17T23:53:08.128Z,49.88
2018-03-17T23:55:34.424Z,43.53
2018-03-17T23:58:01.378Z,52.08
